sensor_id;sensor_type;location;lat;lon;timestamp;P1;durP1;ratioP1;P2;durP2;ratioP2
317;SDS011;146;53.448;10.228;2023-02-17T00:02:14;28.67;;;24.90;;
317;SDS011;146;53.448;10.228;2023-02-17T00:04:48;29.70;;;25.80;;
317;SDS011;146;53.448;10.228;2023-02-17T00:07:20;24.90;;;22.30;;
317;SDS011;146;53.448;10.228;2023-02-17T00:09:57;26.03;;;23.47;;
317;SDS011;146;53.448;10.228;2023-02-17T00:12:30;26.10;;;23.50;;
317;SDS011;146;53.448;10.228;2023-02-17T00:15:16;26.17;;;22.43;;
317;SDS011;146;53.448;10.228;2023-02-17T00:17:54;24.70;;;22.20;;
317;SDS011;146;53.448;10.228;2023-02-17T00:20:23;25.17;;;22.57;;
317;SDS011;146;53.448;10.228;2023-02-17T00:22:49;24.80;;;22.27;;
317;SDS011;146;53.448;10.228;2023-02-17T00:25:22;25.50;;;22.50;;
317;SDS011;146;53.448;10.228;2023-02-17T00:27:52;26.67;;;23.80;;
317;SDS011;146;53.448;10.228;2023-02-17T00:30:22;24.10;;;21.60;;
317;SDS011;146;53.448;10.228;2023-02-17T00:32:52;25.33;;;22.67;;
317;SDS011;146;53.448;10.228;2023-02-17T00:38:16;24.00;;;21.43;;
317;SDS011;146;53.448;10.228;2023-02-17T00:40:45;22.50;;;20.30;;
317;SDS011;146;53.448;10.228;2023-02-17T00:43:14;24.80;;;22.20;;
317;SDS011;146;53.448;10.228;2023-02-17T00:45:41;22.60;;;20.50;;
317;SDS011;146;53.448;10.228;2023-02-17T00:48:11;22.63;;;20.30;;
317;SDS011;146;53.448;10.228;2023-02-17T00:50:38;22.27;;;20.07;;
317;SDS011;146;53.448;10.228;2023-02-17T00:55:51;21.03;;;19.03;;
317;SDS011;146;53.448;10.228;2023-02-17T00:58:27;22.87;;;20.57;;
317;SDS011;146;53.448;10.228;2023-02-17T01:00:54;22.87;;;20.53;;
317;SDS011;146;53.448;10.228;2023-02-17T01:03:29;23.33;;;20.90;;
317;SDS011;146;53.448;10.228;2023-02-17T01:05:56;22.47;;;20.17;;
317;SDS011;146;53.448;10.228;2023-02-17T01:08:28;23.50;;;21.03;;
317;SDS011;146;53.448;10.228;2023-02-17T01:10:57;22.93;;;20.67;;
317;SDS011;146;53.448;10.228;2023-02-17T01:13:30;22.67;;;20.27;;
317;SDS011;146;53.448;10.228;2023-02-17T01:16:14;24.37;;;21.87;;
317;SDS011;146;53.448;10.228;2023-02-17T01:18:43;20.60;;;18.70;;
317;SDS011;146;53.448;10.228;2023-02-17T01:21:14;23.47;;;20.97;;
317;SDS011;146;53.448;10.228;2023-02-17T01:23:46;23.50;;;21.10;;
317;SDS011;146;53.448;10.228;2023-02-17T01:26:14;23.33;;;20.90;;
317;SDS011;146;53.448;10.228;2023-02-17T01:28:42;23.30;;;21.07;;
317;SDS011;146;53.448;10.228;2023-02-17T01:31:15;23.40;;;20.27;;
317;SDS011;146;53.448;10.228;2023-02-17T01:33:46;23.97;;;21.37;;
317;SDS011;146;53.448;10.228;2023-02-17T01:36:19;22.23;;;19.87;;
317;SDS011;146;53.448;10.228;2023-02-17T01:38:50;25.90;;;22.63;;
317;SDS011;146;53.448;10.228;2023-02-17T01:41:17;25.00;;;21.40;;
317;SDS011;146;53.448;10.228;2023-02-17T01:44:06;23.83;;;20.17;;
317;SDS011;146;53.448;10.228;2023-02-17T01:46:41;25.57;;;22.60;;
317;SDS011;146;53.448;10.228;2023-02-17T01:49:16;25.27;;;22.57;;
317;SDS011;146;53.448;10.228;2023-02-17T01:51:48;25.73;;;23.03;;
317;SDS011;146;53.448;10.228;2023-02-17T01:54:21;29.37;;;23.30;;
317;SDS011;146;53.448;10.228;2023-02-17T01:56:55;27.30;;;24.27;;
317;SDS011;146;53.448;10.228;2023-02-17T01:59:23;27.37;;;23.43;;
317;SDS011;146;53.448;10.228;2023-02-17T02:01:54;25.90;;;22.33;;
317;SDS011;146;53.448;10.228;2023-02-17T02:04:26;27.60;;;23.13;;
317;SDS011;146;53.448;10.228;2023-02-17T02:06:57;29.53;;;25.00;;
317;SDS011;146;53.448;10.228;2023-02-17T02:09:29;26.13;;;23.37;;
317;SDS011;146;53.448;10.228;2023-02-17T02:12:21;27.10;;;24.33;;
317;SDS011;146;53.448;10.228;2023-02-17T02:14:55;27.07;;;24.17;;
317;SDS011;146;53.448;10.228;2023-02-17T02:17:34;28.57;;;25.47;;
317;SDS011;146;53.448;10.228;2023-02-17T02:20:35;29.40;;;24.00;;
317;SDS011;146;53.448;10.228;2023-02-17T02:26:43;24.23;;;21.13;;
317;SDS011;146;53.448;10.228;2023-02-17T02:29:25;25.63;;;23.03;;
317;SDS011;146;53.448;10.228;2023-02-17T02:35:19;25.93;;;23.13;;
317;SDS011;146;53.448;10.228;2023-02-17T02:37:52;24.43;;;20.97;;
317;SDS011;146;53.448;10.228;2023-02-17T02:40:28;24.77;;;21.30;;
317;SDS011;146;53.448;10.228;2023-02-17T02:43:00;24.13;;;20.63;;
317;SDS011;146;53.448;10.228;2023-02-17T02:45:31;25.37;;;21.47;;
317;SDS011;146;53.448;10.228;2023-02-17T02:48:05;25.30;;;20.93;;
317;SDS011;146;53.448;10.228;2023-02-17T02:50:39;24.30;;;21.30;;
317;SDS011;146;53.448;10.228;2023-02-17T02:56:43;23.30;;;20.07;;
317;SDS011;146;53.448;10.228;2023-02-17T02:59:40;23.20;;;19.83;;
317;SDS011;146;53.448;10.228;2023-02-17T03:02:14;22.07;;;19.60;;
317;SDS011;146;53.448;10.228;2023-02-17T03:05:03;23.00;;;19.33;;
317;SDS011;146;53.448;10.228;2023-02-17T03:07:40;21.50;;;17.97;;
317;SDS011;146;53.448;10.228;2023-02-17T03:10:11;22.20;;;19.40;;
317;SDS011;146;53.448;10.228;2023-02-17T03:12:48;21.67;;;18.97;;
317;SDS011;146;53.448;10.228;2023-02-17T03:15:17;21.77;;;18.53;;
317;SDS011;146;53.448;10.228;2023-02-17T03:17:58;20.60;;;18.40;;
317;SDS011;146;53.448;10.228;2023-02-17T03:20:26;22.67;;;18.63;;
317;SDS011;146;53.448;10.228;2023-02-17T03:23:02;22.77;;;19.80;;
317;SDS011;146;53.448;10.228;2023-02-17T03:25:33;24.37;;;19.40;;
317;SDS011;146;53.448;10.228;2023-02-17T03:28:00;21.80;;;17.50;;
317;SDS011;146;53.448;10.228;2023-02-17T03:30:32;23.13;;;18.40;;
317;SDS011;146;53.448;10.228;2023-02-17T03:33:03;20.63;;;17.13;;
317;SDS011;146;53.448;10.228;2023-02-17T03:35:33;20.13;;;16.80;;
317;SDS011;146;53.448;10.228;2023-02-17T03:38:15;19.10;;;16.63;;
317;SDS011;146;53.448;10.228;2023-02-17T03:40:42;19.33;;;17.20;;
317;SDS011;146;53.448;10.228;2023-02-17T03:43:15;19.70;;;16.17;;
317;SDS011;146;53.448;10.228;2023-02-17T03:45:42;19.03;;;16.80;;
317;SDS011;146;53.448;10.228;2023-02-17T03:48:11;17.27;;;14.87;;
317;SDS011;146;53.448;10.228;2023-02-17T03:50:50;18.40;;;16.50;;
317;SDS011;146;53.448;10.228;2023-02-17T03:53:18;18.37;;;16.40;;
317;SDS011;146;53.448;10.228;2023-02-17T03:55:48;16.67;;;14.87;;
317;SDS011;146;53.448;10.228;2023-02-17T03:58:17;17.17;;;15.07;;
317;SDS011;146;53.448;10.228;2023-02-17T04:00:44;18.63;;;15.97;;
317;SDS011;146;53.448;10.228;2023-02-17T04:03:11;17.97;;;15.37;;
317;SDS011;146;53.448;10.228;2023-02-17T04:05:38;16.30;;;14.33;;
317;SDS011;146;53.448;10.228;2023-02-17T04:08:07;18.27;;;15.40;;
317;SDS011;146;53.448;10.228;2023-02-17T04:10:43;17.57;;;15.77;;
317;SDS011;146;53.448;10.228;2023-02-17T04:13:16;16.90;;;14.87;;
317;SDS011;146;53.448;10.228;2023-02-17T04:15:42;15.93;;;14.33;;
317;SDS011;146;53.448;10.228;2023-02-17T04:18:09;18.57;;;15.33;;
317;SDS011;146;53.448;10.228;2023-02-17T04:20:43;16.30;;;14.33;;
317;SDS011;146;53.448;10.228;2023-02-17T04:23:18;17.50;;;15.07;;
317;SDS011;146;53.448;10.228;2023-02-17T04:25:50;17.40;;;14.23;;
317;SDS011;146;53.448;10.228;2023-02-17T04:28:23;17.70;;;14.10;;
317;SDS011;146;53.448;10.228;2023-02-17T04:30:50;19.00;;;16.30;;
317;SDS011;146;53.448;10.228;2023-02-17T04:33:17;20.10;;;15.43;;
317;SDS011;146;53.448;10.228;2023-02-17T04:35:45;17.20;;;14.20;;
317;SDS011;146;53.448;10.228;2023-02-17T04:38:12;16.53;;;14.50;;
317;SDS011;146;53.448;10.228;2023-02-17T04:40:53;16.87;;;14.27;;
317;SDS011;146;53.448;10.228;2023-02-17T04:43:21;16.97;;;14.63;;
317;SDS011;146;53.448;10.228;2023-02-17T04:45:48;16.77;;;14.97;;
317;SDS011;146;53.448;10.228;2023-02-17T04:48:15;16.23;;;13.83;;
317;SDS011;146;53.448;10.228;2023-02-17T04:50:42;16.50;;;12.97;;
317;SDS011;146;53.448;10.228;2023-02-17T04:53:08;15.93;;;12.27;;
317;SDS011;146;53.448;10.228;2023-02-17T04:55:35;15.57;;;13.90;;
317;SDS011;146;53.448;10.228;2023-02-17T04:58:07;15.03;;;13.20;;
317;SDS011;146;53.448;10.228;2023-02-17T05:00:36;15.97;;;13.33;;
317;SDS011;146;53.448;10.228;2023-02-17T05:03:03;17.77;;;13.00;;
317;SDS011;146;53.448;10.228;2023-02-17T05:05:30;17.40;;;15.03;;
317;SDS011;146;53.448;10.228;2023-02-17T05:07:57;18.50;;;14.00;;
317;SDS011;146;53.448;10.228;2023-02-17T05:10:23;16.93;;;14.50;;
317;SDS011;146;53.448;10.228;2023-02-17T05:12:50;14.70;;;13.17;;
317;SDS011;146;53.448;10.228;2023-02-17T05:15:25;16.50;;;13.93;;
317;SDS011;146;53.448;10.228;2023-02-17T05:17:57;17.73;;;14.10;;
317;SDS011;146;53.448;10.228;2023-02-17T05:20:24;17.67;;;13.53;;
317;SDS011;146;53.448;10.228;2023-02-17T05:22:51;19.00;;;15.20;;
317;SDS011;146;53.448;10.228;2023-02-17T05:25:27;17.03;;;13.40;;
317;SDS011;146;53.448;10.228;2023-02-17T05:27:54;16.27;;;12.53;;
317;SDS011;146;53.448;10.228;2023-02-17T05:30:27;16.40;;;13.40;;
317;SDS011;146;53.448;10.228;2023-02-17T05:32:54;18.53;;;14.10;;
317;SDS011;146;53.448;10.228;2023-02-17T05:35:27;19.50;;;15.60;;
317;SDS011;146;53.448;10.228;2023-02-17T05:37:58;19.90;;;15.07;;
317;SDS011;146;53.448;10.228;2023-02-17T05:40:25;22.87;;;17.67;;
317;SDS011;146;53.448;10.228;2023-02-17T05:42:55;20.60;;;15.77;;
317;SDS011;146;53.448;10.228;2023-02-17T05:45:22;25.87;;;16.73;;
317;SDS011;146;53.448;10.228;2023-02-17T05:47:53;21.30;;;16.57;;
317;SDS011;146;53.448;10.228;2023-02-17T05:50:20;23.33;;;18.10;;
317;SDS011;146;53.448;10.228;2023-02-17T05:52:49;25.50;;;17.73;;
317;SDS011;146;53.448;10.228;2023-02-17T05:55:16;23.17;;;17.20;;
317;SDS011;146;53.448;10.228;2023-02-17T05:57:47;25.40;;;16.63;;
317;SDS011;146;53.448;10.228;2023-02-17T06:00:14;24.20;;;17.60;;
317;SDS011;146;53.448;10.228;2023-02-17T06:02:41;23.73;;;17.03;;
317;SDS011;146;53.448;10.228;2023-02-17T06:05:17;26.10;;;19.47;;
317;SDS011;146;53.448;10.228;2023-02-17T06:07:47;24.13;;;17.07;;
317;SDS011;146;53.448;10.228;2023-02-17T06:10:16;29.77;;;19.57;;
317;SDS011;146;53.448;10.228;2023-02-17T06:12:43;28.63;;;19.97;;
317;SDS011;146;53.448;10.228;2023-02-17T06:15:13;28.53;;;18.30;;
317;SDS011;146;53.448;10.228;2023-02-17T06:17:40;24.60;;;18.80;;
317;SDS011;146;53.448;10.228;2023-02-17T06:20:10;24.50;;;18.03;;
317;SDS011;146;53.448;10.228;2023-02-17T06:22:41;27.23;;;17.63;;
317;SDS011;146;53.448;10.228;2023-02-17T06:25:14;24.20;;;18.00;;
317;SDS011;146;53.448;10.228;2023-02-17T06:27:40;25.23;;;17.17;;
317;SDS011;146;53.448;10.228;2023-02-17T06:30:20;24.13;;;16.30;;
317;SDS011;146;53.448;10.228;2023-02-17T06:32:47;26.53;;;16.97;;
317;SDS011;146;53.448;10.228;2023-02-17T06:35:17;23.00;;;17.10;;
317;SDS011;146;53.448;10.228;2023-02-17T06:37:45;20.80;;;15.40;;
317;SDS011;146;53.448;10.228;2023-02-17T06:40:18;23.50;;;15.90;;
317;SDS011;146;53.448;10.228;2023-02-17T06:42:45;25.83;;;17.20;;
317;SDS011;146;53.448;10.228;2023-02-17T06:45:21;26.47;;;16.60;;
317;SDS011;146;53.448;10.228;2023-02-17T06:47:51;26.33;;;17.27;;
317;SDS011;146;53.448;10.228;2023-02-17T06:50:27;24.30;;;16.97;;
317;SDS011;146;53.448;10.228;2023-02-17T06:52:55;26.00;;;17.57;;
317;SDS011;146;53.448;10.228;2023-02-17T06:55:21;29.00;;;18.40;;
317;SDS011;146;53.448;10.228;2023-02-17T06:58:00;29.33;;;19.43;;
317;SDS011;146;53.448;10.228;2023-02-17T07:00:33;28.10;;;18.33;;
317;SDS011;146;53.448;10.228;2023-02-17T07:03:03;30.07;;;19.03;;
317;SDS011;146;53.448;10.228;2023-02-17T07:05:30;24.93;;;17.20;;
317;SDS011;146;53.448;10.228;2023-02-17T07:08:04;27.97;;;18.67;;
317;SDS011;146;53.448;10.228;2023-02-17T07:10:41;31.10;;;19.27;;
317;SDS011;146;53.448;10.228;2023-02-17T07:13:08;28.20;;;18.23;;
317;SDS011;146;53.448;10.228;2023-02-17T07:15:34;27.67;;;18.23;;
317;SDS011;146;53.448;10.228;2023-02-17T07:18:01;31.33;;;19.37;;
317;SDS011;146;53.448;10.228;2023-02-17T07:20:28;33.80;;;19.60;;
317;SDS011;146;53.448;10.228;2023-02-17T07:22:59;38.87;;;20.30;;
317;SDS011;146;53.448;10.228;2023-02-17T07:28:09;37.23;;;21.17;;
317;SDS011;146;53.448;10.228;2023-02-17T07:30:48;38.40;;;24.20;;
317;SDS011;146;53.448;10.228;2023-02-17T07:33:21;33.10;;;21.03;;
317;SDS011;146;53.448;10.228;2023-02-17T07:35:51;30.23;;;20.03;;
317;SDS011;146;53.448;10.228;2023-02-17T07:38:21;35.20;;;21.30;;
317;SDS011;146;53.448;10.228;2023-02-17T07:40:55;34.77;;;21.90;;
317;SDS011;146;53.448;10.228;2023-02-17T07:43:28;37.53;;;21.57;;
317;SDS011;146;53.448;10.228;2023-02-17T07:46:00;34.40;;;20.57;;
317;SDS011;146;53.448;10.228;2023-02-17T07:48:44;32.97;;;21.10;;
317;SDS011;146;53.448;10.228;2023-02-17T07:51:16;32.90;;;20.80;;
317;SDS011;146;53.448;10.228;2023-02-17T07:54:05;35.67;;;21.10;;
317;SDS011;146;53.448;10.228;2023-02-17T07:56:38;38.67;;;21.80;;
317;SDS011;146;53.448;10.228;2023-02-17T07:59:06;32.47;;;21.37;;
317;SDS011;146;53.448;10.228;2023-02-17T08:01:33;34.37;;;20.00;;
317;SDS011;146;53.448;10.228;2023-02-17T08:04:04;35.30;;;20.23;;
317;SDS011;146;53.448;10.228;2023-02-17T08:06:33;38.77;;;21.70;;
317;SDS011;146;53.448;10.228;2023-02-17T08:09:02;30.27;;;20.17;;
317;SDS011;146;53.448;10.228;2023-02-17T08:12:01;32.07;;;21.57;;
317;SDS011;146;53.448;10.228;2023-02-17T08:14:52;33.43;;;18.97;;
317;SDS011;146;53.448;10.228;2023-02-17T08:17:22;30.57;;;19.17;;
317;SDS011;146;53.448;10.228;2023-02-17T08:19:51;32.80;;;19.73;;
317;SDS011;146;53.448;10.228;2023-02-17T08:22:24;30.17;;;19.90;;
317;SDS011;146;53.448;10.228;2023-02-17T08:24:59;28.83;;;19.50;;
317;SDS011;146;53.448;10.228;2023-02-17T08:27:33;34.70;;;20.33;;
317;SDS011;146;53.448;10.228;2023-02-17T08:30:00;29.47;;;17.23;;
317;SDS011;146;53.448;10.228;2023-02-17T08:32:29;28.70;;;17.50;;
317;SDS011;146;53.448;10.228;2023-02-17T08:34:56;27.90;;;16.67;;
317;SDS011;146;53.448;10.228;2023-02-17T08:37:43;29.87;;;18.60;;
317;SDS011;146;53.448;10.228;2023-02-17T08:40:10;26.40;;;16.83;;
317;SDS011;146;53.448;10.228;2023-02-17T08:42:38;25.73;;;17.97;;
317;SDS011;146;53.448;10.228;2023-02-17T08:45:05;20.70;;;14.00;;
317;SDS011;146;53.448;10.228;2023-02-17T08:47:32;27.23;;;15.87;;
317;SDS011;146;53.448;10.228;2023-02-17T08:50:03;24.50;;;16.00;;
317;SDS011;146;53.448;10.228;2023-02-17T08:52:30;25.73;;;15.30;;
317;SDS011;146;53.448;10.228;2023-02-17T08:55:01;20.67;;;14.33;;
317;SDS011;146;53.448;10.228;2023-02-17T08:57:36;19.00;;;12.83;;
317;SDS011;146;53.448;10.228;2023-02-17T09:00:05;20.40;;;12.67;;
317;SDS011;146;53.448;10.228;2023-02-17T09:02:33;22.93;;;14.40;;
317;SDS011;146;53.448;10.228;2023-02-17T09:05:03;22.90;;;14.07;;
317;SDS011;146;53.448;10.228;2023-02-17T09:07:30;19.53;;;13.80;;
317;SDS011;146;53.448;10.228;2023-02-17T09:10:07;22.67;;;13.60;;
317;SDS011;146;53.448;10.228;2023-02-17T09:12:38;19.17;;;13.33;;
317;SDS011;146;53.448;10.228;2023-02-17T09:15:06;19.10;;;13.20;;
317;SDS011;146;53.448;10.228;2023-02-17T09:17:33;19.47;;;13.97;;
317;SDS011;146;53.448;10.228;2023-02-17T09:20:05;51.43;;;25.13;;
317;SDS011;146;53.448;10.228;2023-02-17T09:22:32;20.23;;;13.80;;
317;SDS011;146;53.448;10.228;2023-02-17T09:25:02;21.03;;;12.60;;
317;SDS011;146;53.448;10.228;2023-02-17T09:27:30;17.97;;;12.30;;
317;SDS011;146;53.448;10.228;2023-02-17T09:30:08;19.40;;;13.10;;
317;SDS011;146;53.448;10.228;2023-02-17T09:32:35;20.13;;;13.53;;
317;SDS011;146;53.448;10.228;2023-02-17T09:35:05;17.63;;;12.67;;
317;SDS011;146;53.448;10.228;2023-02-17T09:37:35;24.20;;;13.93;;
317;SDS011;146;53.448;10.228;2023-02-17T09:40:14;18.30;;;11.93;;
317;SDS011;146;53.448;10.228;2023-02-17T09:42:51;17.17;;;11.27;;
317;SDS011;146;53.448;10.228;2023-02-17T09:45:20;17.80;;;12.07;;
317;SDS011;146;53.448;10.228;2023-02-17T09:47:51;17.20;;;9.40;;
317;SDS011;146;53.448;10.228;2023-02-17T09:50:26;18.30;;;11.20;;
317;SDS011;146;53.448;10.228;2023-02-17T09:53:00;18.97;;;11.37;;
317;SDS011;146;53.448;10.228;2023-02-17T09:55:35;15.47;;;10.60;;
317;SDS011;146;53.448;10.228;2023-02-17T09:58:10;14.50;;;11.07;;
317;SDS011;146;53.448;10.228;2023-02-17T10:00:52;17.10;;;11.57;;
317;SDS011;146;53.448;10.228;2023-02-17T10:03:27;16.50;;;10.90;;
317;SDS011;146;53.448;10.228;2023-02-17T10:06:19;16.23;;;11.10;;
317;SDS011;146;53.448;10.228;2023-02-17T10:08:57;13.70;;;9.13;;
317;SDS011;146;53.448;10.228;2023-02-17T10:11:28;16.10;;;11.90;;
317;SDS011;146;53.448;10.228;2023-02-17T10:14:00;15.30;;;11.20;;
317;SDS011;146;53.448;10.228;2023-02-17T10:16:33;16.70;;;11.87;;
317;SDS011;146;53.448;10.228;2023-02-17T10:19:13;14.30;;;11.43;;
317;SDS011;146;53.448;10.228;2023-02-17T10:22:05;17.10;;;11.80;;
317;SDS011;146;53.448;10.228;2023-02-17T10:24:39;13.50;;;10.50;;
317;SDS011;146;53.448;10.228;2023-02-17T10:27:09;15.97;;;11.10;;
317;SDS011;146;53.448;10.228;2023-02-17T10:30:22;13.47;;;9.50;;
317;SDS011;146;53.448;10.228;2023-02-17T10:33:01;15.23;;;11.70;;
317;SDS011;146;53.448;10.228;2023-02-17T10:35:43;18.87;;;12.40;;
317;SDS011;146;53.448;10.228;2023-02-17T10:38:27;18.50;;;13.07;;
317;SDS011;146;53.448;10.228;2023-02-17T10:41:26;18.03;;;13.03;;
317;SDS011;146;53.448;10.228;2023-02-17T10:44:08;18.17;;;11.60;;
317;SDS011;146;53.448;10.228;2023-02-17T10:46:39;19.43;;;13.40;;
317;SDS011;146;53.448;10.228;2023-02-17T10:49:11;18.27;;;11.33;;
317;SDS011;146;53.448;10.228;2023-02-17T10:51:46;17.60;;;11.00;;
317;SDS011;146;53.448;10.228;2023-02-17T10:54:35;20.73;;;11.83;;
317;SDS011;146;53.448;10.228;2023-02-17T10:57:06;18.17;;;12.63;;
317;SDS011;146;53.448;10.228;2023-02-17T10:59:42;20.50;;;12.67;;
317;SDS011;146;53.448;10.228;2023-02-17T11:02:17;19.20;;;13.60;;
317;SDS011;146;53.448;10.228;2023-02-17T11:04:53;18.40;;;11.80;;
317;SDS011;146;53.448;10.228;2023-02-17T11:07:38;20.73;;;12.50;;
317;SDS011;146;53.448;10.228;2023-02-17T11:10:20;19.90;;;12.93;;
317;SDS011;146;53.448;10.228;2023-02-17T11:12:49;21.10;;;12.43;;
317;SDS011;146;53.448;10.228;2023-02-17T11:15:24;19.30;;;12.67;;
317;SDS011;146;53.448;10.228;2023-02-17T11:17:54;19.10;;;13.20;;
317;SDS011;146;53.448;10.228;2023-02-17T11:20:43;20.40;;;12.70;;
317;SDS011;146;53.448;10.228;2023-02-17T11:23:27;19.47;;;12.63;;
317;SDS011;146;53.448;10.228;2023-02-17T11:26:17;23.30;;;12.00;;
317;SDS011;146;53.448;10.228;2023-02-17T11:29:05;20.00;;;13.27;;
317;SDS011;146;53.448;10.228;2023-02-17T11:31:33;22.93;;;12.17;;
317;SDS011;146;53.448;10.228;2023-02-17T11:34:19;21.37;;;14.03;;
317;SDS011;146;53.448;10.228;2023-02-17T11:36:56;15.70;;;12.07;;
317;SDS011;146;53.448;10.228;2023-02-17T11:39:25;20.57;;;14.60;;
317;SDS011;146;53.448;10.228;2023-02-17T11:41:55;21.20;;;13.33;;
317;SDS011;146;53.448;10.228;2023-02-17T11:44:38;20.90;;;13.20;;
317;SDS011;146;53.448;10.228;2023-02-17T11:47:11;19.30;;;13.40;;
317;SDS011;146;53.448;10.228;2023-02-17T11:53:00;21.43;;;14.83;;
317;SDS011;146;53.448;10.228;2023-02-17T11:55:49;21.03;;;13.50;;
317;SDS011;146;53.448;10.228;2023-02-17T11:58:38;18.97;;;13.30;;
317;SDS011;146;53.448;10.228;2023-02-17T12:01:38;21.27;;;13.53;;
317;SDS011;146;53.448;10.228;2023-02-17T12:04:25;19.40;;;13.10;;
317;SDS011;146;53.448;10.228;2023-02-17T12:06:58;17.03;;;11.27;;
317;SDS011;146;53.448;10.228;2023-02-17T12:10:04;18.67;;;13.23;;
317;SDS011;146;53.448;10.228;2023-02-17T12:12:44;19.30;;;13.30;;
317;SDS011;146;53.448;10.228;2023-02-17T12:15:33;20.37;;;14.43;;
317;SDS011;146;53.448;10.228;2023-02-17T12:18:43;18.57;;;12.70;;
317;SDS011;146;53.448;10.228;2023-02-17T12:21:46;19.70;;;12.90;;
317;SDS011;146;53.448;10.228;2023-02-17T12:24:27;17.50;;;12.70;;
317;SDS011;146;53.448;10.228;2023-02-17T12:27:05;22.30;;;13.83;;
317;SDS011;146;53.448;10.228;2023-02-17T12:30:02;19.50;;;13.80;;
317;SDS011;146;53.448;10.228;2023-02-17T12:32:56;19.87;;;13.00;;
317;SDS011;146;53.448;10.228;2023-02-17T12:35:38;19.40;;;12.10;;
317;SDS011;146;53.448;10.228;2023-02-17T12:38:12;16.77;;;11.60;;
317;SDS011;146;53.448;10.228;2023-02-17T12:40:46;15.67;;;11.90;;
317;SDS011;146;53.448;10.228;2023-02-17T12:43:21;17.63;;;11.10;;
317;SDS011;146;53.448;10.228;2023-02-17T12:45:57;14.10;;;10.80;;
317;SDS011;146;53.448;10.228;2023-02-17T12:48:27;15.73;;;10.57;;
317;SDS011;146;53.448;10.228;2023-02-17T12:51:02;13.97;;;9.63;;
317;SDS011;146;53.448;10.228;2023-02-17T12:53:37;15.90;;;11.30;;
317;SDS011;146;53.448;10.228;2023-02-17T12:56:36;17.67;;;11.97;;
317;SDS011;146;53.448;10.228;2023-02-17T12:59:24;14.70;;;9.83;;
317;SDS011;146;53.448;10.228;2023-02-17T13:02:05;16.47;;;11.07;;
317;SDS011;146;53.448;10.228;2023-02-17T13:04:38;13.67;;;9.93;;
317;SDS011;146;53.448;10.228;2023-02-17T13:07:32;17.40;;;10.37;;
317;SDS011;146;53.448;10.228;2023-02-17T13:10:19;13.07;;;9.20;;
317;SDS011;146;53.448;10.228;2023-02-17T13:12:57;11.83;;;8.80;;
317;SDS011;146;53.448;10.228;2023-02-17T13:15:35;12.57;;;8.77;;
317;SDS011;146;53.448;10.228;2023-02-17T13:18:10;11.40;;;7.80;;
317;SDS011;146;53.448;10.228;2023-02-17T13:20:50;9.73;;;7.20;;
317;SDS011;146;53.448;10.228;2023-02-17T13:23:26;9.80;;;7.60;;
317;SDS011;146;53.448;10.228;2023-02-17T13:29:18;7.10;;;5.80;;
317;SDS011;146;53.448;10.228;2023-02-17T13:32:03;7.60;;;6.50;;
317;SDS011;146;53.448;10.228;2023-02-17T13:34:33;7.83;;;5.83;;
317;SDS011;146;53.448;10.228;2023-02-17T13:37:13;7.90;;;6.23;;
317;SDS011;146;53.448;10.228;2023-02-17T13:39:45;9.73;;;6.60;;
317;SDS011;146;53.448;10.228;2023-02-17T13:45:12;5.37;;;4.80;;
317;SDS011;146;53.448;10.228;2023-02-17T13:47:48;6.70;;;4.97;;
317;SDS011;146;53.448;10.228;2023-02-17T13:53:32;7.10;;;6.40;;
317;SDS011;146;53.448;10.228;2023-02-17T13:56:04;6.73;;;5.13;;
317;SDS011;146;53.448;10.228;2023-02-17T13:58:36;8.77;;;6.20;;
317;SDS011;146;53.448;10.228;2023-02-17T14:01:05;7.67;;;6.30;;
317;SDS011;146;53.448;10.228;2023-02-17T14:03:56;8.20;;;5.67;;
317;SDS011;146;53.448;10.228;2023-02-17T14:06:28;8.67;;;5.90;;
317;SDS011;146;53.448;10.228;2023-02-17T14:09:17;8.30;;;6.33;;
317;SDS011;146;53.448;10.228;2023-02-17T14:11:47;9.93;;;6.30;;
317;SDS011;146;53.448;10.228;2023-02-17T14:14:14;10.57;;;6.83;;
317;SDS011;146;53.448;10.228;2023-02-17T14:16:41;10.07;;;6.23;;
317;SDS011;146;53.448;10.228;2023-02-17T14:19:14;7.57;;;6.20;;
317;SDS011;146;53.448;10.228;2023-02-17T14:21:56;9.33;;;6.17;;
317;SDS011;146;53.448;10.228;2023-02-17T14:24:31;7.70;;;5.87;;
317;SDS011;146;53.448;10.228;2023-02-17T14:27:01;7.00;;;6.13;;
317;SDS011;146;53.448;10.228;2023-02-17T14:29:45;6.70;;;5.53;;
317;SDS011;146;53.448;10.228;2023-02-17T14:32:27;7.33;;;6.30;;
317;SDS011;146;53.448;10.228;2023-02-17T14:35:18;7.37;;;6.20;;
317;SDS011;146;53.448;10.228;2023-02-17T14:37:47;8.40;;;5.47;;
317;SDS011;146;53.448;10.228;2023-02-17T14:40:16;7.97;;;5.70;;
317;SDS011;146;53.448;10.228;2023-02-17T14:42:53;6.80;;;5.20;;
317;SDS011;146;53.448;10.228;2023-02-17T14:45:23;5.77;;;5.17;;
317;SDS011;146;53.448;10.228;2023-02-17T14:47:50;6.50;;;5.90;;
317;SDS011;146;53.448;10.228;2023-02-17T14:50:43;6.00;;;4.70;;
317;SDS011;146;53.448;10.228;2023-02-17T14:53:10;9.23;;;4.77;;
317;SDS011;146;53.448;10.228;2023-02-17T14:55:41;7.40;;;5.80;;
317;SDS011;146;53.448;10.228;2023-02-17T14:58:20;7.33;;;4.70;;
317;SDS011;146;53.448;10.228;2023-02-17T15:00:51;8.93;;;5.63;;
317;SDS011;146;53.448;10.228;2023-02-17T15:03:21;7.50;;;5.20;;
317;SDS011;146;53.448;10.228;2023-02-17T15:05:50;5.50;;;3.90;;
317;SDS011;146;53.448;10.228;2023-02-17T15:08:18;5.80;;;4.37;;
317;SDS011;146;53.448;10.228;2023-02-17T15:10:50;4.20;;;3.40;;
317;SDS011;146;53.448;10.228;2023-02-17T15:13:18;6.27;;;3.03;;
317;SDS011;146;53.448;10.228;2023-02-17T15:15:46;6.33;;;2.80;;
317;SDS011;146;53.448;10.228;2023-02-17T15:18:19;11.03;;;5.23;;
317;SDS011;146;53.448;10.228;2023-02-17T15:20:56;6.07;;;2.33;;
317;SDS011;146;53.448;10.228;2023-02-17T15:23:23;5.37;;;2.90;;
317;SDS011;146;53.448;10.228;2023-02-17T15:26:01;4.00;;;2.03;;
317;SDS011;146;53.448;10.228;2023-02-17T15:28:28;5.37;;;2.03;;
317;SDS011;146;53.448;10.228;2023-02-17T15:30:54;4.73;;;2.23;;
317;SDS011;146;53.448;10.228;2023-02-17T15:33:22;10.67;;;2.37;;
317;SDS011;146;53.448;10.228;2023-02-17T15:35:50;2.93;;;1.60;;
317;SDS011;146;53.448;10.228;2023-02-17T15:38:27;5.50;;;2.50;;
317;SDS011;146;53.448;10.228;2023-02-17T15:41:01;5.57;;;3.13;;
317;SDS011;146;53.448;10.228;2023-02-17T15:43:31;5.47;;;2.07;;
317;SDS011;146;53.448;10.228;2023-02-17T15:46:00;5.63;;;2.20;;
317;SDS011;146;53.448;10.228;2023-02-17T15:48:39;7.50;;;2.10;;
317;SDS011;146;53.448;10.228;2023-02-17T15:51:07;9.70;;;2.07;;
317;SDS011;146;53.448;10.228;2023-02-17T15:53:40;9.87;;;2.57;;
317;SDS011;146;53.448;10.228;2023-02-17T15:56:10;5.77;;;2.23;;
317;SDS011;146;53.448;10.228;2023-02-17T15:58:40;7.30;;;3.23;;
317;SDS011;146;53.448;10.228;2023-02-17T16:01:16;7.50;;;2.83;;
317;SDS011;146;53.448;10.228;2023-02-17T16:03:51;9.50;;;2.93;;
317;SDS011;146;53.448;10.228;2023-02-17T16:06:19;9.30;;;2.20;;
317;SDS011;146;53.448;10.228;2023-02-17T16:08:50;7.40;;;3.17;;
317;SDS011;146;53.448;10.228;2023-02-17T16:11:18;5.80;;;2.47;;
317;SDS011;146;53.448;10.228;2023-02-17T16:13:45;9.40;;;3.27;;
317;SDS011;146;53.448;10.228;2023-02-17T16:16:17;11.37;;;2.70;;
317;SDS011;146;53.448;10.228;2023-02-17T16:18:45;8.53;;;2.60;;
317;SDS011;146;53.448;10.228;2023-02-17T16:21:15;9.70;;;3.60;;